Ainsworth, NE

12:30 PM CDT on August 18, 2017 (GMT -0500)
Ainsworth Municipal

Weather History for KANW - May, 2014

Change the Weather History Date:

Monday, May 12, 2014

  Actual Average Record
Temperature  
Mean Temperature 42 °F -  
Max Temperature 49 °F 66 °F 87 °F (2007)
Min Temperature 34 °F 42 °F 32 °F (2006)
Degree Days  
Heating Degree Days 24    
Moisture  
Dew Point 35 °F    
Average Humidity 83    
Maximum Humidity 100    
Minimum Humidity 50    
Precipitation  
Precipitation 0.45 in - - ()
Sea Level Pressure  
Sea Level Pressure 30.04 in    
Wind  
Wind Speed 23 mph (NNW)    
Max Wind Speed 34 mph    
Max Gust Speed 43 mph    
Visibility 7 miles    
Events Rain , Snow    
Averages and records for this station are not official NWS values.
T = Trace of Precipitation, MM = Missing Value Source: NWS Daily Summary

Daily Weather History Graph

Daily Weather History Graph

Search for Another Location

Airport or City:

Trip Planner

Search our weather history database for the weather conditions in past years. The results will help you decide how hot, cold, wet, or windy it might be!

Date:

Astronomy

May. 12, 2014 Rise Set
Actual Time 6:21 AM CDT 8:52 PM CDT
Civil Twilight 5:49 AM CDT 9:24 PM CDT
Nautical Twilight 5:09 AM CDT 10:04 PM CDT
Astronomical Twilight 4:24 AM CDT 10:49 PM CDT
Moon 6:49 PM CDT (5/12) 5:04 AM CDT (5/12)
Length of Visible Light 15h 35m
Length of Day
14h 31m
Waxing Gibbous, 95% of the Moon is Illuminated
May 12
Waxing Gibbous
May 14
Full
May 21
Last Quarter
May 28
New
Jun 5
First Quarter

Hourly Weather History & Observations

Time (CDT) Temp. Windchill Dew Point Humidity Pressure Visibility Wind Dir Wind Speed Gust Speed Precip Events Conditions
12:15 AM 41.9 °F 32.6 °F 40.8 °F 96% 29.97 in 10.0 mi NNW 21.9 mph 34.5 mph N/A   Light Drizzle
12:35 AM 41.0 °F 30.7 °F 41.0 °F 100% 29.96 in 7.0 mi North 25.3 mph 31.1 mph N/A   Drizzle
12:55 AM 41.2 °F 31.4 °F 40.3 °F 97% 29.96 in 5.0 mi NNW 23.0 mph 35.7 mph 0.01 in Rain Light Rain
1:15 AM 41.0 °F 30.9 °F 40.3 °F 97% 29.94 in 4.0 mi North 24.2 mph 33.4 mph N/A Rain Light Rain
1:35 AM 41.0 °F 30.7 °F 40.1 °F 97% 29.95 in 4.0 mi NNW 25.3 mph 33.4 mph 0.01 in Rain Light Rain
1:55 AM 40.6 °F 30.2 °F 40.1 °F 98% 29.96 in 10.0 mi North 25.3 mph 29.9 mph 0.01 in   Overcast
2:15 AM 40.5 °F 30.0 °F 39.7 °F 97% 29.95 in 10.0 mi North 25.3 mph 34.5 mph N/A Rain Light Rain
2:35 AM 40.5 °F 30.2 °F 39.7 °F 97% 29.94 in 10.0 mi North 24.2 mph 32.2 mph 0.01 in Rain Light Rain
2:55 AM 40.1 °F 29.7 °F 39.4 °F 97% 29.94 in 10.0 mi NNW 24.2 mph 33.4 mph 0.02 in Rain Light Rain
3:15 AM 40.1 °F 29.5 °F 39.2 °F 97% 29.93 in 7.0 mi NNW 25.3 mph 32.2 mph 0.01 in Rain Light Rain
3:35 AM 39.7 °F 29.2 °F 39.2 °F 98% 29.93 in 10.0 mi NNW 24.2 mph 31.1 mph 0.02 in Rain Rain
3:55 AM 39.7 °F 29.7 °F 39.2 °F 98% 29.92 in 7.0 mi North 21.9 mph 27.6 mph 0.04 in Rain Light Rain
4:15 AM 39.6 °F 28.7 °F 38.8 °F 97% 29.92 in 7.0 mi North 25.3 mph 33.4 mph 0.01 in Rain Light Rain
4:35 AM 39.6 °F 28.3 °F 38.7 °F 97% 29.91 in 7.0 mi NNW 27.6 mph 34.5 mph 0.02 in Rain Light Rain
4:55 AM 39.4 °F 28.5 °F 38.7 °F 97% 29.91 in 4.0 mi NNW 25.3 mph 31.1 mph 0.03 in Rain Rain
5:15 AM 38.8 °F 28.3 °F 38.3 °F 98% 29.89 in 7.0 mi NNW 23.0 mph 27.6 mph 0.01 in Rain Light Rain
5:35 AM 38.5 °F 27.8 °F 37.9 °F 98% 29.87 in 4.0 mi NNW 23.0 mph 29.9 mph 0.02 in Rain Light Rain
5:55 AM 38.3 °F 28.4 °F 37.8 °F 98% 29.90 in 3.0 mi NNW 19.6 mph 26.5 mph 0.04 in Rain Light Rain
6:15 AM 38.3 °F 28.4 °F 37.8 °F 98% 29.90 in 4.0 mi NNW 19.6 mph 32.2 mph N/A Rain Light Rain
6:35 AM 38.3 °F 27.1 °F 37.6 °F 97% 29.89 in 10.0 mi NNW 25.3 mph 31.1 mph N/A Rain Rain
6:55 AM 38.3 °F 27.8 °F 37.4 °F 97% 29.94 in 10.0 mi NNW 21.9 mph 25.3 mph 0.01 in   Light Drizzle
7:15 AM 38.3 °F 27.3 °F 37.4 °F 97% 29.97 in 10.0 mi NNW 24.2 mph 29.9 mph N/A   Drizzle
7:35 AM 37.9 °F 27.6 °F 36.9 °F 96% 29.97 in 10.0 mi NNW 20.7 mph 32.2 mph N/A Rain Light Rain
7:55 AM 37.6 °F 26.3 °F 36.5 °F 96% 29.97 in 4.0 mi NNW 24.2 mph 29.9 mph 0.01 in Snow Light Snow
8:15 AM 37.4 °F 25.9 °F 36.5 °F 97% 29.98 in 7.0 mi NNW 25.3 mph 33.4 mph 0.01 in Rain Light Rain
8:35 AM 37.2 °F 25.9 °F 36.3 °F 97% 29.98 in 10.0 mi NNW 24.2 mph 28.8 mph 0.02 in Rain Light Rain
8:55 AM 37.4 °F 26.6 °F 35.6 °F 93% 29.98 in 10.0 mi NNW 21.9 mph 27.6 mph N/A Rain Light Rain
9:15 AM 36.5 °F 25.2 °F 35.6 °F 97% 29.99 in 4.0 mi NNW 23.0 mph 31.1 mph 0.01 in Snow Light Snow
9:35 AM 35.8 °F 24.2 °F 34.9 °F 97% 30.01 in 3.0 mi NNW 23.0 mph 29.9 mph 0.02 in Snow Light Snow
9:55 AM 35.1 °F 23.5 °F 34.3 °F 97% 30.03 in 1.5 mi NW 21.9 mph 29.9 mph 0.04 in Snow Light Snow
10:15 AM 34.7 °F 22.8 °F 34.0 °F 97% 30.02 in 1.0 mi NW 23.0 mph 32.2 mph 0.01 in Snow Light Snow
10:35 AM 34.3 °F 22.9 °F 33.8 °F 98% 30.03 in 1.0 mi NW 20.7 mph 26.5 mph 0.01 in Snow Light Snow
10:55 AM 34.3 °F 22.9 °F 34.0 °F 99% 30.04 in 0.5 mi NW 20.7 mph 28.8 mph 0.02 in Snow Light Snow
11:15 AM 34.3 °F 22.6 °F 34.0 °F 99% 30.04 in 0.2 mi NW 21.9 mph 28.8 mph 0.01 in Snow Snow
11:35 AM 34.3 °F 22.0 °F 34.0 °F 99% 30.06 in 0.2 mi NW 24.2 mph 32.2 mph 0.02 in Snow Snow
11:55 AM 34.3 °F 21.5 °F 34.0 °F 99% 30.08 in 0.5 mi NW 26.5 mph 35.7 mph 0.05 in Snow Light Snow
12:15 PM 34.3 °F 22.0 °F 34.0 °F 99% 30.08 in 0.8 mi NW 24.2 mph 34.5 mph 0.02 in Snow Light Snow
12:35 PM 34.3 °F 21.8 °F 34.0 °F 99% 30.09 in 0.2 mi NW 25.3 mph 33.4 mph 0.05 in Snow Snow
12:55 PM 34.7 °F 22.2 °F 34.0 °F 97% 30.09 in 0.5 mi NW 25.3 mph 36.8 mph 0.07 in Snow Light Snow
1:15 PM 34.7 °F 21.3 °F 34.0 °F 97% 30.10 in 0.8 mi NW 29.9 mph 36.8 mph 0.02 in Snow Light Snow
1:35 PM 35.6 °F 22.7 °F 35.2 °F 99% 30.10 in 0.8 mi NW 28.8 mph 38.0 mph 0.04 in Snow Light Snow
1:55 PM 37.2 °F 25.2 °F 36.5 °F 97% 30.10 in 7.0 mi NW 27.6 mph 38.0 mph 0.05 in Snow Light Snow
2:15 PM 37.8 °F 25.9 °F 36.5 °F 95% 30.11 in 5.0 mi NNW 27.6 mph 38.0 mph 0.01 in Rain Light Rain
2:35 PM 38.7 °F 26.7 °F 36.9 °F 93% 30.11 in 7.0 mi NNW 29.9 mph 39.1 mph 0.02 in Rain Light Rain
2:55 PM 39.4 °F 28.1 °F 36.5 °F 89% 30.11 in 7.0 mi NNW 27.6 mph 36.8 mph 0.03 in Rain Light Rain
3:15 PM 40.3 °F 30.2 °F 37.2 °F 89% 30.11 in 10.0 mi NNW 23.0 mph 32.2 mph N/A Rain Rain
3:35 PM 42.3 °F 31.6 °F 35.2 °F 76% 30.12 in 10.0 mi NNW 29.9 mph 40.3 mph N/A   Light Drizzle
3:55 PM 43.0 °F 32.7 °F 33.6 °F 70% 30.11 in 10.0 mi NNW 28.8 mph 40.3 mph N/A   Light Drizzle
4:15 PM 44.8 °F 36.4 °F 34.7 °F 68% 30.11 in 10.0 mi NNW 21.9 mph 29.9 mph N/A   Overcast
4:35 PM 45.5 °F 36.9 °F 34.3 °F 65% 30.11 in 10.0 mi NNW 24.2 mph 38.0 mph N/A   Overcast
4:55 PM 46.9 °F - 35.2 °F 64% 30.10 in 10.0 mi NNW 20.7 mph 28.8 mph N/A   Overcast
5:15 PM 48.2 °F - 32.9 °F 55% 30.10 in 10.0 mi NNW 24.2 mph 35.7 mph N/A   Overcast
5:35 PM 48.7 °F - 32.9 °F 54% 30.10 in 10.0 mi NNW 24.2 mph 36.8 mph N/A   Overcast
5:55 PM 49.5 °F - 32.0 °F 51% 30.11 in 10.0 mi NNW 28.8 mph 35.7 mph N/A   Overcast
6:15 PM 49.6 °F - 31.8 °F 50% 30.10 in 10.0 mi NNW 34.5 mph 42.6 mph N/A   Overcast
6:35 PM 49.3 °F - 31.8 °F 51% 30.10 in 10.0 mi NNW 28.8 mph 35.7 mph N/A   Mostly Cloudy
6:55 PM 49.3 °F - 32.0 °F 51% 30.09 in 10.0 mi NNW 26.5 mph 38.0 mph N/A   Scattered Clouds
7:15 PM 48.7 °F - 31.8 °F 52% 30.09 in 10.0 mi NNW 25.3 mph 36.8 mph N/A   Clear
7:35 PM 48.0 °F - 32.2 °F 54% 30.10 in 10.0 mi NNW 24.2 mph 32.2 mph N/A   Clear
7:55 PM 47.7 °F - 31.3 °F 53% 30.11 in 10.0 mi NNW 20.7 mph 36.8 mph N/A   Scattered Clouds
8:15 PM 46.8 °F - 31.5 °F 55% 30.12 in 10.0 mi NNW 26.5 mph 33.4 mph N/A   Scattered Clouds
8:35 PM 46.4 °F 39.0 °F 31.3 °F 56% 30.14 in 10.0 mi NNW 19.6 mph 28.8 mph N/A   Mostly Cloudy
8:55 PM 46.0 °F 37.8 °F 31.1 °F 56% 30.14 in 10.0 mi NNW 23.0 mph 26.5 mph N/A   Overcast
9:15 PM 45.5 °F 38.6 °F 31.6 °F 58% 30.15 in 10.0 mi North 16.1 mph 23.0 mph N/A   Overcast
9:35 PM 45.3 °F 38.4 °F 31.6 °F 59% 30.17 in 10.0 mi NNW 16.1 mph 21.9 mph N/A   Overcast
9:55 PM 45.0 °F 38.5 °F 31.8 °F 60% 30.19 in 10.0 mi North 13.8 mph 19.6 mph N/A   Overcast
10:15 PM 44.6 °F 38.4 °F 32.0 °F 61% 30.20 in 10.0 mi NNW 12.7 mph 17.3 mph N/A   Mostly Cloudy
10:35 PM 44.6 °F 39.2 °F 32.0 °F 61% 30.20 in 10.0 mi NNW 10.4 mph - N/A   Clear
10:55 PM 43.7 °F 39.1 °F 32.5 °F 65% 30.21 in 10.0 mi NNW 8.1 mph - N/A   Clear
11:15 PM 43.7 °F 40.3 °F 32.4 °F 64% 30.22 in 10.0 mi NW 5.8 mph - N/A   Clear
11:35 PM 43.5 °F 38.9 °F 32.5 °F 65% 30.21 in 10.0 mi NW 8.1 mph - N/A   Clear
11:55 PM 42.1 °F 37.7 °F 32.9 °F 70% 30.21 in 10.0 mi WNW 6.9 mph - N/A   Clear